Jacobus — OR3790 — position and weather

sailwx.info

Track history (hours):
 
Tides and Currents Weather Stations Pressure Air Temp Water Temp Dewpoint Dewpoint Depression Visibility Wind Speed Wind Dir Waves Ship Positions

Jacobus

Last reported at 2014-Oct-09 04:32 UTC. Time now 2014-Oct-25 11:14 UTC.
Position N 39°34' E 002°39'.
Warning: this ship's position is 16 days out of date.

Length 17 m.

Type: Pleasure craft. MMSI: 205379010.

Date/timePositionNaut miles runAvg speedWind from/ knotsBaromVisibWave heightAir tempDewpointWater temp
2014-Oct-09 04:32N 39°34' E 002°39'0 0.0
2014-Oct-09 03:32N 39°34' E 002°39'0 0.0
2014-Oct-09 02:32N 39°34' E 002°39'0 0.0
2014-Oct-09 01:32N 39°34' E 002°39'0 0.0
2014-Oct-09 00:32N 39°34' E 002°39'0 0.0
2014-Oct-08 23:32N 39°34' E 002°39'0 0.0
2014-Oct-08 22:32N 39°34' E 002°39'0 0.0
2014-Oct-08 21:32N 39°34' E 002°39'0 0.0
2014-Oct-08 20:32N 39°34' E 002°39'0 0.0
2014-Oct-08 19:32N 39°34' E 002°39'0 0.0
2014-Oct-08 18:32N 39°34' E 002°39'0 0.0
2014-Oct-08 17:32N 39°34' E 002°39'3 3.3
2014-Oct-08 16:33N 39°32' E 002°36'2 2.4
2014-Oct-08 15:33N 39°31' E 002°33'0 0.2
2014-Oct-08 14:30N 39°31' E 002°32'0 0.0
2014-Oct-08 13:29N 39°31' E 002°32'0 0.0
2014-Oct-08 12:32N 39°31' E 002°32'0 0.0
2014-Oct-08 11:33N 39°31' E 002°32'0 0.0
2014-Oct-08 10:33N 39°31' E 002°32'0 0.0
2014-Oct-08 09:32N 39°31' E 002°32'0 0.0
2014-Oct-08 08:30N 39°31' E 002°32'0 0.0
2014-Oct-08 07:33N 39°31' E 002°32'0 0.0
2014-Oct-08 06:32N 39°31' E 002°32'0 0.0
2014-Oct-08 05:33N 39°31' E 002°32'0 0.0
2014-Oct-08 04:30N 39°31' E 002°32'0 0.0
2014-Oct-08 03:33N 39°31' E 002°32'0 0.0
2014-Oct-08 02:34N 39°31' E 002°32'0 0.0
2014-Oct-08 01:32N 39°31' E 002°32'0 0.0
2014-Oct-08 00:34N 39°31' E 002°32'0 0.0
2014-Oct-07 23:32N 39°31' E 002°32'1 1.2
2014-Oct-07 22:29N 39°32' E 002°34'0 0.0
2014-Oct-07 21:33N 39°32' E 002°34'0 0.0
2014-Oct-07 20:29N 39°32' E 002°34'0 0.0
2014-Oct-07 19:29N 39°32' E 002°34'0 0.0
2014-Oct-07 18:32N 39°32' E 002°34'0 0.0
2014-Oct-07 17:31N 39°32' E 002°34'3 3.1
2014-Oct-07 16:33N 39°29' E 002°32'7 0.9
2014-Oct-07 08:33N 39°31' E 002°24'2 1.7
2014-Oct-07 07:23N 39°32' E 002°23'0 0.0
2014-Oct-07 06:23N 39°32' E 002°23'0 0.0
2014-Oct-07 04:28N 39°32' E 002°23'0 0.0
2014-Oct-07 03:15N 39°32' E 002°23'0 0.0
2014-Oct-07 02:27N 39°32' E 002°23'0 0.0
2014-Oct-07 01:31N 39°32' E 002°23'2 0.2
2014-Oct-06 16:06N 39°31' E 002°24'4 6.5
2014-Oct-06 15:32N 39°28' E 002°27'4 3.8
2014-Oct-06 14:33N 39°28' E 002°32'1 1.2
2014-Oct-06 13:33N 39°29' E 002°32'1 0.6
2014-Oct-06 12:33N 39°29' E 002°33'4 3.7
2014-Oct-06 11:33N 39°32' E 002°37'1 1.4
2014-Oct-06 10:33N 39°33' E 002°36'0 0.0
2014-Oct-06 09:33N 39°33' E 002°36'0 0.0
2014-Oct-06 08:33N 39°33' E 002°36'2 2.0
2014-Oct-06 07:32N 39°34' E 002°38'0 0.0
2014-Oct-06 06:32N 39°34' E 002°38'0 0.0
2014-Oct-06 05:32N 39°34' E 002°38'0 0.0
2014-Oct-06 04:32N 39°34' E 002°38'0 0.0
2014-Oct-06 03:32N 39°34' E 002°38'0 0.0
2014-Oct-06 02:32N 39°34' E 002°38'0 0.0
2014-Oct-06 01:32N 39°34' E 002°38'0 0.0
2014-Oct-06 00:32N 39°34' E 002°38'0 0.0
2014-Oct-05 23:32N 39°34' E 002°38'0 0.0
2014-Oct-05 22:32N 39°34' E 002°38'0 0.0
2014-Oct-05 21:32N 39°34' E 002°38'0 0.0
2014-Oct-05 20:32N 39°34' E 002°38'0 0.0
2014-Oct-05 19:32N 39°34' E 002°38'0 0.0
2014-Oct-05 18:32N 39°34' E 002°38'0 0.0
2014-Oct-05 17:32N 39°34' E 002°38'0 0.0
2014-Oct-05 16:32N 39°34' E 002°38'0 0.0
2014-Oct-05 14:32N 39°34' E 002°38'  
2014-Oct-02 19:13N 39°34' E 002°38'0 0.0
2014-Oct-02 18:33N 39°34' E 002°39'5 4.8
2014-Oct-02 17:33N 39°31' E 002°34'2 2.2
2014-Oct-02 16:33N 39°29' E 002°32'0 0.0
2014-Oct-02 15:33N 39°29' E 002°32'0 0.0
2014-Oct-02 14:33N 39°29' E 002°32'3 2.5
2014-Oct-02 13:33N 39°31' E 002°34'1 0.7
2014-Oct-02 12:17N 39°32' E 002°34'0 0.0
2014-Oct-02 11:33N 39°32' E 002°34'3 2.9
2014-Oct-02 10:33N 39°31' E 002°38'5 4.7
2014-Oct-02 09:33N 39°31' E 002°44'1 0.6
2014-Oct-02 08:29N 39°30' E 002°45'0 0.0
2014-Oct-02 07:32N 39°30' E 002°45'0 0.0
2014-Oct-02 06:32N 39°30' E 002°45'0 0.0
2014-Oct-02 05:32N 39°30' E 002°45'0 0.0
2014-Oct-02 04:32N 39°30' E 002°45'0 0.0
2014-Oct-02 03:32N 39°30' E 002°45'0 0.0
2014-Oct-02 02:32N 39°30' E 002°45'0 0.0
2014-Oct-02 01:32N 39°30' E 002°45'0 0.0
2014-Oct-02 00:32N 39°30' E 002°45'0 0.0
2014-Oct-01 23:32N 39°30' E 002°45'0 0.0
2014-Oct-01 22:32N 39°30' E 002°45'0 0.0
2014-Oct-01 21:32N 39°30' E 002°45'0 0.0
2014-Oct-01 20:32N 39°30' E 002°45'0 0.0
2014-Oct-01 19:32N 39°30' E 002°45'0 0.0
2014-Oct-01 18:29N 39°30' E 002°45'  
Track history (hours):
 
Tides and Currents Weather Stations Pressure Air Temp Water Temp Dewpoint Dewpoint Depression Visibility Wind Speed Wind Dir Waves Ship Positions

Jacobus

Last reported at 2014-Oct-09 04:32 UTC. Time now 2014-Oct-25 11:14 UTC.
Position N 39°34' E 002°39'.
Warning: this ship's position is 16 days out of date.

Length 17 m.

Type: Pleasure craft. MMSI: 205379010.

Date/timePositionNaut miles runAvg speedWind from/ knotsBaromVisibWave heightAir tempDewpointWater temp
2014-Oct-09 04:32N 39°34' E 002°39'0 0.0
2014-Oct-09 03:32N 39°34' E 002°39'0 0.0
2014-Oct-09 02:32N 39°34' E 002°39'0 0.0
2014-Oct-09 01:32N 39°34' E 002°39'0 0.0
2014-Oct-09 00:32N 39°34' E 002°39'0 0.0
2014-Oct-08 23:32N 39°34' E 002°39'0 0.0
2014-Oct-08 22:32N 39°34' E 002°39'0 0.0
2014-Oct-08 21:32N 39°34' E 002°39'0 0.0
2014-Oct-08 20:32N 39°34' E 002°39'0 0.0
2014-Oct-08 19:32N 39°34' E 002°39'0 0.0
2014-Oct-08 18:32N 39°34' E 002°39'0 0.0
2014-Oct-08 17:32N 39°34' E 002°39'3 3.3
2014-Oct-08 16:33N 39°32' E 002°36'2 2.4
2014-Oct-08 15:33N 39°31' E 002°33'0 0.2
2014-Oct-08 14:30N 39°31' E 002°32'0 0.0
2014-Oct-08 13:29N 39°31' E 002°32'0 0.0
2014-Oct-08 12:32N 39°31' E 002°32'0 0.0
2014-Oct-08 11:33N 39°31' E 002°32'0 0.0
2014-Oct-08 10:33N 39°31' E 002°32'0 0.0
2014-Oct-08 09:32N 39°31' E 002°32'0 0.0
2014-Oct-08 08:30N 39°31' E 002°32'0 0.0
2014-Oct-08 07:33N 39°31' E 002°32'0 0.0
2014-Oct-08 06:32N 39°31' E 002°32'0 0.0
2014-Oct-08 05:33N 39°31' E 002°32'0 0.0
2014-Oct-08 04:30N 39°31' E 002°32'0 0.0
2014-Oct-08 03:33N 39°31' E 002°32'0 0.0
2014-Oct-08 02:34N 39°31' E 002°32'0 0.0
2014-Oct-08 01:32N 39°31' E 002°32'0 0.0
2014-Oct-08 00:34N 39°31' E 002°32'0 0.0
2014-Oct-07 23:32N 39°31' E 002°32'1 1.2
2014-Oct-07 22:29N 39°32' E 002°34'0 0.0
2014-Oct-07 21:33N 39°32' E 002°34'0 0.0
2014-Oct-07 20:29N 39°32' E 002°34'0 0.0
2014-Oct-07 19:29N 39°32' E 002°34'0 0.0
2014-Oct-07 18:32N 39°32' E 002°34'0 0.0
2014-Oct-07 17:31N 39°32' E 002°34'3 3.1
2014-Oct-07 16:33N 39°29' E 002°32'7 0.9
2014-Oct-07 08:33N 39°31' E 002°24'2 1.7
2014-Oct-07 07:23N 39°32' E 002°23'0 0.0
2014-Oct-07 06:23N 39°32' E 002°23'0 0.0
2014-Oct-07 04:28N 39°32' E 002°23'0 0.0
2014-Oct-07 03:15N 39°32' E 002°23'0 0.0
2014-Oct-07 02:27N 39°32' E 002°23'0 0.0
2014-Oct-07 01:31N 39°32' E 002°23'2 0.2
2014-Oct-06 16:06N 39°31' E 002°24'4 6.5
2014-Oct-06 15:32N 39°28' E 002°27'4 3.8
2014-Oct-06 14:33N 39°28' E 002°32'1 1.2
2014-Oct-06 13:33N 39°29' E 002°32'1 0.6
2014-Oct-06 12:33N 39°29' E 002°33'4 3.7
2014-Oct-06 11:33N 39°32' E 002°37'1 1.4
2014-Oct-06 10:33N 39°33' E 002°36'0 0.0
2014-Oct-06 09:33N 39°33' E 002°36'0 0.0
2014-Oct-06 08:33N 39°33' E 002°36'2 2.0
2014-Oct-06 07:32N 39°34' E 002°38'0 0.0
2014-Oct-06 06:32N 39°34' E 002°38'0 0.0
2014-Oct-06 05:32N 39°34' E 002°38'0 0.0
2014-Oct-06 04:32N 39°34' E 002°38'0 0.0
2014-Oct-06 03:32N 39°34' E 002°38'0 0.0
2014-Oct-06 02:32N 39°34' E 002°38'0 0.0
2014-Oct-06 01:32N 39°34' E 002°38'0 0.0
2014-Oct-06 00:32N 39°34' E 002°38'0 0.0
2014-Oct-05 23:32N 39°34' E 002°38'0 0.0
2014-Oct-05 22:32N 39°34' E 002°38'0 0.0
2014-Oct-05 21:32N 39°34' E 002°38'0 0.0
2014-Oct-05 20:32N 39°34' E 002°38'0 0.0
2014-Oct-05 19:32N 39°34' E 002°38'0 0.0
2014-Oct-05 18:32N 39°34' E 002°38'0 0.0
2014-Oct-05 17:32N 39°34' E 002°38'0 0.0
2014-Oct-05 16:32N 39°34' E 002°38'0 0.0
2014-Oct-05 14:32N 39°34' E 002°38'  
2014-Oct-02 19:13N 39°34' E 002°38'0 0.0
2014-Oct-02 18:33N 39°34' E 002°39'5 4.8
2014-Oct-02 17:33N 39°31' E 002°34'2 2.2
2014-Oct-02 16:33N 39°29' E 002°32'0 0.0
2014-Oct-02 15:33N 39°29' E 002°32'0 0.0
2014-Oct-02 14:33N 39°29' E 002°32'3 2.5
2014-Oct-02 13:33N 39°31' E 002°34'1 0.7
2014-Oct-02 12:17N 39°32' E 002°34'0 0.0
2014-Oct-02 11:33N 39°32' E 002°34'3 2.9
2014-Oct-02 10:33N 39°31' E 002°38'5 4.7
2014-Oct-02 09:33N 39°31' E 002°44'1 0.6
2014-Oct-02 08:29N 39°30' E 002°45'0 0.0
2014-Oct-02 07:32N 39°30' E 002°45'0 0.0
2014-Oct-02 06:32N 39°30' E 002°45'0 0.0
2014-Oct-02 05:32N 39°30' E 002°45'0 0.0
2014-Oct-02 04:32N 39°30' E 002°45'0 0.0
2014-Oct-02 03:32N 39°30' E 002°45'0 0.0
2014-Oct-02 02:32N 39°30' E 002°45'0 0.0
2014-Oct-02 01:32N 39°30' E 002°45'0 0.0
2014-Oct-02 00:32N 39°30' E 002°45'0 0.0
2014-Oct-01 23:32N 39°30' E 002°45'0 0.0
2014-Oct-01 22:32N 39°30' E 002°45'0 0.0
2014-Oct-01 21:32N 39°30' E 002°45'0 0.0
2014-Oct-01 20:32N 39°30' E 002°45'0 0.0
2014-Oct-01 19:32N 39°30' E 002°45'0 0.0
2014-Oct-01 18:29N 39°30' E 002°45'  

Dump ship's entire track history